sensor_id;sensor_type;location;lat;lon;timestamp;noise_LAeq;noise_LA_min;noise_LA_max;noise_LA01;noise_LA95
72686;Laerm;61365;52.162;4.500;2023-06-22T00:01:12;42.07;37.49;43.92;;
72686;Laerm;61365;52.162;4.500;2023-06-22T00:03:38;42.03;37.24;43.90;;
72686;Laerm;61365;52.162;4.500;2023-06-22T00:06:04;42.00;37.94;43.71;;
72686;Laerm;61365;52.162;4.500;2023-06-22T00:08:30;42.01;38.28;43.85;;
72686;Laerm;61365;52.162;4.500;2023-06-22T00:10:56;42.12;38.21;44.09;;
72686;Laerm;61365;52.162;4.500;2023-06-22T00:13:22;42.01;37.45;43.76;;
72686;Laerm;61365;52.162;4.500;2023-06-22T00:15:48;41.77;37.47;44.12;;
72686;Laerm;61365;52.162;4.500;2023-06-22T00:18:14;41.63;37.62;43.51;;
72686;Laerm;61365;52.162;4.500;2023-06-22T00:20:42;41.72;36.96;43.86;;
72686;Laerm;61365;52.162;4.500;2023-06-22T00:23:08;41.65;37.01;45.48;;
72686;Laerm;61365;52.162;4.500;2023-06-22T00:25:35;41.62;37.23;43.43;;
72686;Laerm;61365;52.162;4.500;2023-06-22T00:28:02;41.76;37.61;43.68;;
72686;Laerm;61365;52.162;4.500;2023-06-22T00:30:28;41.72;38.13;43.65;;
72686;Laerm;61365;52.162;4.500;2023-06-22T00:32:54;41.90;38.14;44.49;;
72686;Laerm;61365;52.162;4.500;2023-06-22T00:35:21;42.27;38.17;44.24;;
72686;Laerm;61365;52.162;4.500;2023-06-22T00:37:47;42.28;36.78;44.62;;
72686;Laerm;61365;52.162;4.500;2023-06-22T00:40:13;42.12;37.02;44.46;;
72686;Laerm;61365;52.162;4.500;2023-06-22T00:42:41;41.91;37.00;43.53;;
72686;Laerm;61365;52.162;4.500;2023-06-22T00:45:07;42.07;37.35;43.92;;
72686;Laerm;61365;52.162;4.500;2023-06-22T00:47:34;42.20;37.10;44.44;;
72686;Laerm;61365;52.162;4.500;2023-06-22T00:50:02;42.13;36.94;44.22;;
72686;Laerm;61365;52.162;4.500;2023-06-22T00:52:29;42.11;37.20;44.09;;
72686;Laerm;61365;52.162;4.500;2023-06-22T00:54:57;42.15;37.77;44.16;;
72686;Laerm;61365;52.162;4.500;2023-06-22T00:57:24;42.18;37.16;43.91;;
72686;Laerm;61365;52.162;4.500;2023-06-22T00:59:54;42.09;37.16;43.95;;
72686;Laerm;61365;52.162;4.500;2023-06-22T01:02:20;41.99;37.66;44.10;;
72686;Laerm;61365;52.162;4.500;2023-06-22T01:04:47;41.93;37.28;43.81;;
72686;Laerm;61365;52.162;4.500;2023-06-22T01:10:46;41.80;36.15;45.90;;
72686;Laerm;61365;52.162;4.500;2023-06-22T01:13:25;41.92;37.41;43.84;;
72686;Laerm;61365;52.162;4.500;2023-06-22T01:16:03;41.99;36.96;43.89;;
72686;Laerm;61365;52.162;4.500;2023-06-22T01:18:32;41.85;37.03;43.71;;
72686;Laerm;61365;52.162;4.500;2023-06-22T01:21:04;41.97;38.02;44.47;;
72686;Laerm;61365;52.162;4.500;2023-06-22T01:26:18;42.01;36.58;44.09;;
72686;Laerm;61365;52.162;4.500;2023-06-22T01:28:49;41.98;37.20;43.85;;
72686;Laerm;61365;52.162;4.500;2023-06-22T01:31:18;42.06;36.48;44.07;;
72686;Laerm;61365;52.162;4.500;2023-06-22T01:33:49;42.01;37.14;43.74;;
72686;Laerm;61365;52.162;4.500;2023-06-22T01:36:17;41.95;37.46;44.28;;
72686;Laerm;61365;52.162;4.500;2023-06-22T01:38:44;42.09;37.26;44.34;;
72686;Laerm;61365;52.162;4.500;2023-06-22T01:41:12;41.94;36.50;49.00;;
72686;Laerm;61365;52.162;4.500;2023-06-22T01:43:38;41.86;36.89;44.85;;
72686;Laerm;61365;52.162;4.500;2023-06-22T01:46:05;41.80;36.65;44.50;;
72686;Laerm;61365;52.162;4.500;2023-06-22T01:48:32;41.74;37.67;43.85;;
72686;Laerm;61365;52.162;4.500;2023-06-22T01:50:58;41.81;36.62;49.75;;
72686;Laerm;61365;52.162;4.500;2023-06-22T01:53:25;41.81;37.13;44.03;;
72686;Laerm;61365;52.162;4.500;2023-06-22T01:55:51;41.72;37.08;43.82;;
72686;Laerm;61365;52.162;4.500;2023-06-22T01:58:20;41.79;37.45;43.55;;
72686;Laerm;61365;52.162;4.500;2023-06-22T02:01:00;41.91;37.39;44.58;;
72686;Laerm;61365;52.162;4.500;2023-06-22T02:03:41;41.90;37.08;44.01;;
72686;Laerm;61365;52.162;4.500;2023-06-22T02:06:25;41.94;36.51;43.87;;
72686;Laerm;61365;52.162;4.500;2023-06-22T02:08:59;41.89;36.74;43.83;;
72686;Laerm;61365;52.162;4.500;2023-06-22T02:11:27;41.84;36.73;43.72;;
72686;Laerm;61365;52.162;4.500;2023-06-22T02:13:56;41.83;37.14;43.58;;
72686;Laerm;61365;52.162;4.500;2023-06-22T02:16:23;41.87;37.82;44.31;;
72686;Laerm;61365;52.162;4.500;2023-06-22T02:18:50;41.86;36.97;45.16;;
72686;Laerm;61365;52.162;4.500;2023-06-22T02:21:17;41.87;37.18;47.56;;
72686;Laerm;61365;52.162;4.500;2023-06-22T02:23:44;41.97;37.82;43.70;;
72686;Laerm;61365;52.162;4.500;2023-06-22T02:26:10;41.85;36.73;43.60;;
72686;Laerm;61365;52.162;4.500;2023-06-22T02:28:36;41.92;36.93;43.65;;
72686;Laerm;61365;52.162;4.500;2023-06-22T02:31:02;41.85;36.07;44.03;;
72686;Laerm;61365;52.162;4.500;2023-06-22T02:33:29;41.85;36.51;43.73;;
72686;Laerm;61365;52.162;4.500;2023-06-22T02:35:55;41.92;37.10;43.73;;
72686;Laerm;61365;52.162;4.500;2023-06-22T02:38:21;42.05;37.68;44.40;;
72686;Laerm;61365;52.162;4.500;2023-06-22T02:40:49;42.07;37.51;45.01;;
72686;Laerm;61365;52.162;4.500;2023-06-22T02:43:15;41.99;37.69;44.82;;
72686;Laerm;61365;52.162;4.500;2023-06-22T02:45:41;41.98;36.73;44.23;;
72686;Laerm;61365;52.162;4.500;2023-06-22T02:48:07;41.94;36.27;44.97;;
72686;Laerm;61365;52.162;4.500;2023-06-22T02:50:33;41.56;35.98;45.22;;
72686;Laerm;61365;52.162;4.500;2023-06-22T02:52:59;41.94;36.25;44.39;;
72686;Laerm;61365;52.162;4.500;2023-06-22T02:55:25;41.91;37.21;43.81;;
72686;Laerm;61365;52.162;4.500;2023-06-22T02:57:51;41.87;37.65;43.66;;
72686;Laerm;61365;52.162;4.500;2023-06-22T03:00:19;42.06;37.63;44.28;;
72686;Laerm;61365;52.162;4.500;2023-06-22T03:02:46;41.94;36.79;43.70;;
72686;Laerm;61365;52.162;4.500;2023-06-22T03:05:14;41.87;37.55;46.58;;
72686;Laerm;61365;52.162;4.500;2023-06-22T03:07:41;41.89;36.40;43.83;;
72686;Laerm;61365;52.162;4.500;2023-06-22T03:10:11;41.87;37.14;48.93;;
72686;Laerm;61365;52.162;4.500;2023-06-22T03:12:38;41.83;36.91;44.22;;
72686;Laerm;61365;52.162;4.500;2023-06-22T03:15:06;41.83;36.09;44.43;;
72686;Laerm;61365;52.162;4.500;2023-06-22T03:17:34;41.89;36.85;44.72;;
72686;Laerm;61365;52.162;4.500;2023-06-22T03:20:01;41.88;36.63;43.97;;
72686;Laerm;61365;52.162;4.500;2023-06-22T03:22:38;41.95;37.01;45.84;;
72686;Laerm;61365;52.162;4.500;2023-06-22T03:25:05;41.95;36.59;43.70;;
72686;Laerm;61365;52.162;4.500;2023-06-22T03:27:36;41.86;36.65;44.08;;
72686;Laerm;61365;52.162;4.500;2023-06-22T03:30:03;42.01;37.24;44.89;;
72686;Laerm;61365;52.162;4.500;2023-06-22T03:32:29;42.22;37.65;46.07;;
72686;Laerm;61365;52.162;4.500;2023-06-22T03:34:55;42.06;36.98;44.49;;
72686;Laerm;61365;52.162;4.500;2023-06-22T03:37:25;41.93;36.61;43.71;;
72686;Laerm;61365;52.162;4.500;2023-06-22T03:39:52;42.06;36.67;43.78;;
72686;Laerm;61365;52.162;4.500;2023-06-22T03:42:18;42.11;36.03;44.34;;
72686;Laerm;61365;52.162;4.500;2023-06-22T03:44:44;41.94;37.79;43.68;;
72686;Laerm;61365;52.162;4.500;2023-06-22T03:47:10;41.91;37.05;44.24;;
72686;Laerm;61365;52.162;4.500;2023-06-22T03:49:36;41.86;36.77;43.80;;
72686;Laerm;61365;52.162;4.500;2023-06-22T03:52:03;41.80;35.91;43.90;;
72686;Laerm;61365;52.162;4.500;2023-06-22T03:54:30;41.79;36.71;44.04;;
72686;Laerm;61365;52.162;4.500;2023-06-22T03:56:57;41.81;37.42;43.87;;
72686;Laerm;61365;52.162;4.500;2023-06-22T03:59:23;41.90;37.42;44.56;;
72686;Laerm;61365;52.162;4.500;2023-06-22T04:01:50;41.89;37.20;45.22;;
72686;Laerm;61365;52.162;4.500;2023-06-22T04:04:17;41.87;36.22;44.91;;
72686;Laerm;61365;52.162;4.500;2023-06-22T04:06:43;41.80;37.38;43.74;;
72686;Laerm;61365;52.162;4.500;2023-06-22T04:09:09;41.79;36.99;44.45;;
72686;Laerm;61365;52.162;4.500;2023-06-22T04:11:35;42.00;36.69;44.17;;
72686;Laerm;61365;52.162;4.500;2023-06-22T04:14:02;42.03;36.82;44.26;;
72686;Laerm;61365;52.162;4.500;2023-06-22T04:16:28;42.01;37.38;44.56;;
72686;Laerm;61365;52.162;4.500;2023-06-22T04:18:54;41.88;37.27;44.21;;
72686;Laerm;61365;52.162;4.500;2023-06-22T04:21:20;41.91;37.75;43.73;;
72686;Laerm;61365;52.162;4.500;2023-06-22T04:23:46;41.97;37.52;43.69;;
72686;Laerm;61365;52.162;4.500;2023-06-22T04:26:13;42.01;37.52;43.84;;
72686;Laerm;61365;52.162;4.500;2023-06-22T04:28:40;41.96;38.20;44.35;;
72686;Laerm;61365;52.162;4.500;2023-06-22T04:31:06;41.93;36.92;44.16;;
72686;Laerm;61365;52.162;4.500;2023-06-22T04:33:33;41.96;37.55;43.72;;
72686;Laerm;61365;52.162;4.500;2023-06-22T04:35:59;41.92;37.79;43.77;;
72686;Laerm;61365;52.162;4.500;2023-06-22T04:38:29;42.04;36.63;44.09;;
72686;Laerm;61365;52.162;4.500;2023-06-22T04:40:59;42.11;37.61;43.82;;
72686;Laerm;61365;52.162;4.500;2023-06-22T04:43:27;42.02;37.08;43.94;;
72686;Laerm;61365;52.162;4.500;2023-06-22T04:45:57;41.98;37.13;48.70;;
72686;Laerm;61365;52.162;4.500;2023-06-22T04:48:29;41.69;36.44;43.54;;
72686;Laerm;61365;52.162;4.500;2023-06-22T04:50:59;41.72;37.09;43.51;;
72686;Laerm;61365;52.162;4.500;2023-06-22T04:53:32;41.72;37.35;43.67;;
72686;Laerm;61365;52.162;4.500;2023-06-22T04:55:58;41.69;37.19;43.74;;
72686;Laerm;61365;52.162;4.500;2023-06-22T04:58:24;41.77;38.16;43.58;;
72686;Laerm;61365;52.162;4.500;2023-06-22T05:00:52;41.63;37.79;43.52;;
72686;Laerm;61365;52.162;4.500;2023-06-22T05:03:18;41.59;38.47;43.50;;
72686;Laerm;61365;52.162;4.500;2023-06-22T05:05:44;41.55;36.47;43.66;;
72686;Laerm;61365;52.162;4.500;2023-06-22T05:08:13;41.64;36.94;43.88;;
72686;Laerm;61365;52.162;4.500;2023-06-22T05:10:39;41.58;37.48;43.78;;
72686;Laerm;61365;52.162;4.500;2023-06-22T05:13:05;41.58;36.37;43.52;;
72686;Laerm;61365;52.162;4.500;2023-06-22T05:15:31;41.65;37.26;43.44;;
72686;Laerm;61365;52.162;4.500;2023-06-22T05:18:03;41.63;37.54;43.95;;
72686;Laerm;61365;52.162;4.500;2023-06-22T05:20:31;41.61;35.70;43.57;;
72686;Laerm;61365;52.162;4.500;2023-06-22T05:22:57;41.59;37.11;43.81;;
72686;Laerm;61365;52.162;4.500;2023-06-22T05:25:23;41.47;37.81;43.53;;
72686;Laerm;61365;52.162;4.500;2023-06-22T05:27:49;41.46;36.98;43.17;;
72686;Laerm;61365;52.162;4.500;2023-06-22T05:30:17;41.59;37.16;43.23;;
72686;Laerm;61365;52.162;4.500;2023-06-22T05:32:44;41.64;37.58;43.54;;
72686;Laerm;61365;52.162;4.500;2023-06-22T05:35:10;41.65;36.44;43.55;;
72686;Laerm;61365;52.162;4.500;2023-06-22T05:37:36;41.66;37.02;47.39;;
72686;Laerm;61365;52.162;4.500;2023-06-22T05:40:03;41.64;36.78;44.78;;
72686;Laerm;61365;52.162;4.500;2023-06-22T05:42:29;41.67;36.81;43.66;;
72686;Laerm;61365;52.162;4.500;2023-06-22T05:44:56;41.66;37.10;43.71;;
72686;Laerm;61365;52.162;4.500;2023-06-22T05:47:22;41.69;35.69;43.68;;
72686;Laerm;61365;52.162;4.500;2023-06-22T05:49:48;41.68;36.69;43.83;;
72686;Laerm;61365;52.162;4.500;2023-06-22T05:52:14;41.60;36.95;43.57;;
72686;Laerm;61365;52.162;4.500;2023-06-22T05:54:40;41.58;36.13;43.78;;
72686;Laerm;61365;52.162;4.500;2023-06-22T05:57:07;41.64;36.98;43.66;;
72686;Laerm;61365;52.162;4.500;2023-06-22T05:59:33;41.55;36.87;43.45;;
72686;Laerm;61365;52.162;4.500;2023-06-22T06:01:59;41.63;36.71;43.67;;
72686;Laerm;61365;52.162;4.500;2023-06-22T06:04:25;41.53;37.42;43.52;;
72686;Laerm;61365;52.162;4.500;2023-06-22T06:06:51;41.43;37.28;45.14;;
72686;Laerm;61365;52.162;4.500;2023-06-22T06:09:17;41.39;36.07;43.78;;
72686;Laerm;61365;52.162;4.500;2023-06-22T06:11:44;41.34;36.64;43.88;;
72686;Laerm;61365;52.162;4.500;2023-06-22T06:14:10;41.37;35.75;43.30;;
72686;Laerm;61365;52.162;4.500;2023-06-22T06:16:36;41.42;37.44;43.36;;
72686;Laerm;61365;52.162;4.500;2023-06-22T06:19:02;41.46;35.70;43.34;;
72686;Laerm;61365;52.162;4.500;2023-06-22T06:21:28;41.45;36.74;43.46;;
72686;Laerm;61365;52.162;4.500;2023-06-22T06:23:55;41.49;36.24;43.60;;
72686;Laerm;61365;52.162;4.500;2023-06-22T06:26:21;41.46;36.42;43.30;;
72686;Laerm;61365;52.162;4.500;2023-06-22T06:29:00;41.45;36.61;43.46;;
72686;Laerm;61365;52.162;4.500;2023-06-22T06:31:26;41.44;36.58;43.88;;
72686;Laerm;61365;52.162;4.500;2023-06-22T06:33:56;41.44;36.75;43.52;;
72686;Laerm;61365;52.162;4.500;2023-06-22T06:36:22;41.34;36.73;43.34;;
72686;Laerm;61365;52.162;4.500;2023-06-22T06:38:48;41.13;36.52;43.39;;
72686;Laerm;61365;52.162;4.500;2023-06-22T06:41:15;41.33;36.28;43.40;;
72686;Laerm;61365;52.162;4.500;2023-06-22T06:43:42;41.19;36.31;43.26;;
72686;Laerm;61365;52.162;4.500;2023-06-22T06:46:11;41.14;36.10;43.17;;
72686;Laerm;61365;52.162;4.500;2023-06-22T06:48:37;41.15;36.07;43.25;;
72686;Laerm;61365;52.162;4.500;2023-06-22T06:51:03;41.12;36.14;42.98;;
72686;Laerm;61365;52.162;4.500;2023-06-22T06:53:29;41.07;35.26;42.93;;
72686;Laerm;61365;52.162;4.500;2023-06-22T06:55:56;41.16;36.26;42.92;;
72686;Laerm;61365;52.162;4.500;2023-06-22T06:58:22;41.17;37.08;43.71;;
72686;Laerm;61365;52.162;4.500;2023-06-22T07:00:48;41.19;35.92;43.36;;
72686;Laerm;61365;52.162;4.500;2023-06-22T07:03:15;41.21;35.47;43.49;;
72686;Laerm;61365;52.162;4.500;2023-06-22T07:05:41;41.20;36.43;43.06;;
72686;Laerm;61365;52.162;4.500;2023-06-22T07:08:07;41.16;35.98;43.41;;
72686;Laerm;61365;52.162;4.500;2023-06-22T07:10:33;41.10;37.54;43.02;;
72686;Laerm;61365;52.162;4.500;2023-06-22T07:12:59;41.10;36.14;42.81;;
72686;Laerm;61365;52.162;4.500;2023-06-22T07:15:25;41.15;35.80;43.07;;
72686;Laerm;61365;52.162;4.500;2023-06-22T07:17:51;41.14;35.27;43.38;;
72686;Laerm;61365;52.162;4.500;2023-06-22T07:20:17;41.17;35.64;43.14;;
72686;Laerm;61365;52.162;4.500;2023-06-22T07:22:45;41.07;36.57;42.95;;
72686;Laerm;61365;52.162;4.500;2023-06-22T07:25:11;41.00;36.05;42.83;;
72686;Laerm;61365;52.162;4.500;2023-06-22T07:27:56;41.09;36.33;43.19;;
72686;Laerm;61365;52.162;4.500;2023-06-22T07:30:22;41.11;36.14;42.82;;
72686;Laerm;61365;52.162;4.500;2023-06-22T07:32:48;41.02;35.20;43.31;;
72686;Laerm;61365;52.162;4.500;2023-06-22T07:35:15;40.99;35.84;44.21;;
72686;Laerm;61365;52.162;4.500;2023-06-22T07:37:42;40.99;35.87;43.04;;
72686;Laerm;61365;52.162;4.500;2023-06-22T07:40:09;40.97;36.25;42.56;;
72686;Laerm;61365;52.162;4.500;2023-06-22T07:42:35;40.91;35.81;42.89;;
72686;Laerm;61365;52.162;4.500;2023-06-22T07:45:03;40.96;35.37;42.93;;
72686;Laerm;61365;52.162;4.500;2023-06-22T07:47:30;40.94;36.08;43.05;;
72686;Laerm;61365;52.162;4.500;2023-06-22T07:49:58;40.92;35.62;43.18;;
72686;Laerm;61365;52.162;4.500;2023-06-22T07:52:29;40.97;35.47;42.91;;
72686;Laerm;61365;52.162;4.500;2023-06-22T07:54:55;41.00;35.92;42.98;;
72686;Laerm;61365;52.162;4.500;2023-06-22T07:57:21;40.69;33.81;42.54;;
72686;Laerm;61365;52.162;4.500;2023-06-22T07:59:47;40.91;36.50;43.06;;
72686;Laerm;61365;52.162;4.500;2023-06-22T08:02:13;40.88;35.17;43.26;;
72686;Laerm;61365;52.162;4.500;2023-06-22T08:04:40;40.89;35.44;43.33;;
72686;Laerm;61365;52.162;4.500;2023-06-22T08:07:07;40.90;36.00;43.00;;
72686;Laerm;61365;52.162;4.500;2023-06-22T08:09:33;40.98;34.91;43.05;;
72686;Laerm;61365;52.162;4.500;2023-06-22T08:11:59;40.89;35.65;42.90;;
72686;Laerm;61365;52.162;4.500;2023-06-22T08:14:26;40.95;35.04;42.62;;
72686;Laerm;61365;52.162;4.500;2023-06-22T08:16:53;41.00;35.18;43.09;;
72686;Laerm;61365;52.162;4.500;2023-06-22T08:19:19;41.19;33.98;43.38;;
72686;Laerm;61365;52.162;4.500;2023-06-22T08:21:45;41.20;33.74;43.27;;
72686;Laerm;61365;52.162;4.500;2023-06-22T08:24:11;41.08;34.57;42.97;;
72686;Laerm;61365;52.162;4.500;2023-06-22T08:26:37;41.12;34.77;43.23;;
72686;Laerm;61365;52.162;4.500;2023-06-22T08:29:04;41.15;34.60;43.37;;
72686;Laerm;61365;52.162;4.500;2023-06-22T08:31:31;41.15;35.30;43.28;;
72686;Laerm;61365;52.162;4.500;2023-06-22T08:33:59;41.06;35.11;43.13;;
72686;Laerm;61365;52.162;4.500;2023-06-22T08:36:25;41.10;33.93;43.92;;
72686;Laerm;61365;52.162;4.500;2023-06-22T08:38:51;41.13;34.37;43.25;;
72686;Laerm;61365;52.162;4.500;2023-06-22T08:41:18;41.16;34.32;43.02;;
72686;Laerm;61365;52.162;4.500;2023-06-22T08:43:44;41.20;35.17;43.93;;
72686;Laerm;61365;52.162;4.500;2023-06-22T08:46:11;41.15;34.10;42.96;;
72686;Laerm;61365;52.162;4.500;2023-06-22T08:48:37;41.15;34.42;42.94;;
72686;Laerm;61365;52.162;4.500;2023-06-22T08:51:04;41.20;35.64;43.17;;
72686;Laerm;61365;52.162;4.500;2023-06-22T08:53:30;41.16;35.07;43.27;;
72686;Laerm;61365;52.162;4.500;2023-06-22T08:55:56;41.16;34.45;42.93;;
72686;Laerm;61365;52.162;4.500;2023-06-22T08:58:23;41.16;34.64;43.18;;
72686;Laerm;61365;52.162;4.500;2023-06-22T09:00:50;41.28;34.70;43.32;;
72686;Laerm;61365;52.162;4.500;2023-06-22T09:03:17;41.25;34.56;43.00;;
72686;Laerm;61365;52.162;4.500;2023-06-22T09:05:43;41.18;34.49;43.99;;
72686;Laerm;61365;52.162;4.500;2023-06-22T09:08:10;41.23;33.78;43.04;;
72686;Laerm;61365;52.162;4.500;2023-06-22T09:10:37;41.24;35.75;43.21;;
72686;Laerm;61365;52.162;4.500;2023-06-22T09:13:03;41.23;35.04;43.85;;
72686;Laerm;61365;52.162;4.500;2023-06-22T09:15:29;41.22;35.03;43.19;;
72686;Laerm;61365;52.162;4.500;2023-06-22T09:17:55;41.19;34.66;43.23;;
72686;Laerm;61365;52.162;4.500;2023-06-22T09:20:22;41.16;34.13;43.67;;
72686;Laerm;61365;52.162;4.500;2023-06-22T09:22:49;41.02;33.94;42.97;;
72686;Laerm;61365;52.162;4.500;2023-06-22T09:25:15;41.19;34.74;43.53;;
72686;Laerm;61365;52.162;4.500;2023-06-22T09:27:41;41.23;35.01;43.32;;
72686;Laerm;61365;52.162;4.500;2023-06-22T09:30:07;41.12;33.35;43.47;;
72686;Laerm;61365;52.162;4.500;2023-06-22T09:32:33;40.97;33.14;42.88;;
72686;Laerm;61365;52.162;4.500;2023-06-22T09:35:03;41.19;34.07;43.16;;
72686;Laerm;61365;52.162;4.500;2023-06-22T09:37:31;41.27;35.26;44.28;;
72686;Laerm;61365;52.162;4.500;2023-06-22T09:39:57;41.22;34.93;43.22;;
72686;Laerm;61365;52.162;4.500;2023-06-22T09:42:23;41.18;34.79;43.30;;
72686;Laerm;61365;52.162;4.500;2023-06-22T09:44:49;41.11;33.22;42.99;;
72686;Laerm;61365;52.162;4.500;2023-06-22T09:47:15;41.13;34.63;43.48;;
72686;Laerm;61365;52.162;4.500;2023-06-22T09:49:42;41.20;34.76;43.02;;
72686;Laerm;61365;52.162;4.500;2023-06-22T09:52:08;41.12;33.23;43.02;;
72686;Laerm;61365;52.162;4.500;2023-06-22T09:54:34;41.07;34.09;43.05;;
72686;Laerm;61365;52.162;4.500;2023-06-22T09:57:00;41.14;34.00;43.09;;
72686;Laerm;61365;52.162;4.500;2023-06-22T09:59:26;41.15;34.05;43.35;;
72686;Laerm;61365;52.162;4.500;2023-06-22T10:01:52;41.10;34.47;43.26;;
72686;Laerm;61365;52.162;4.500;2023-06-22T10:04:18;41.10;34.18;42.90;;
72686;Laerm;61365;52.162;4.500;2023-06-22T10:06:44;41.18;34.89;43.35;;
72686;Laerm;61365;52.162;4.500;2023-06-22T10:09:10;41.23;32.61;42.96;;
72686;Laerm;61365;52.162;4.500;2023-06-22T10:11:37;41.23;34.44;43.11;;
72686;Laerm;61365;52.162;4.500;2023-06-22T10:14:03;41.19;34.11;43.18;;
72686;Laerm;61365;52.162;4.500;2023-06-22T10:16:30;41.12;32.98;43.28;;
72686;Laerm;61365;52.162;4.500;2023-06-22T10:18:57;41.15;33.42;43.55;;
72686;Laerm;61365;52.162;4.500;2023-06-22T10:21:23;41.14;32.89;43.06;;
72686;Laerm;61365;52.162;4.500;2023-06-22T10:23:50;41.03;32.95;43.17;;
72686;Laerm;61365;52.162;4.500;2023-06-22T10:26:16;41.14;34.09;42.85;;
72686;Laerm;61365;52.162;4.500;2023-06-22T10:28:42;41.08;33.72;42.81;;
72686;Laerm;61365;52.162;4.500;2023-06-22T10:31:08;41.09;33.95;43.54;;
72686;Laerm;61365;52.162;4.500;2023-06-22T10:33:34;41.15;34.22;51.75;;
72686;Laerm;61365;52.162;4.500;2023-06-22T10:36:01;41.14;34.74;43.05;;
72686;Laerm;61365;52.162;4.500;2023-06-22T10:38:27;41.19;34.36;53.50;;
72686;Laerm;61365;52.162;4.500;2023-06-22T10:40:53;41.22;33.74;43.66;;
72686;Laerm;61365;52.162;4.500;2023-06-22T10:43:19;41.08;34.29;43.20;;
72686;Laerm;61365;52.162;4.500;2023-06-22T10:45:45;40.96;33.41;43.26;;
72686;Laerm;61365;52.162;4.500;2023-06-22T10:48:11;41.10;34.20;43.12;;
72686;Laerm;61365;52.162;4.500;2023-06-22T10:50:37;41.15;33.37;43.79;;
72686;Laerm;61365;52.162;4.500;2023-06-22T10:53:03;41.24;34.17;43.10;;
72686;Laerm;61365;52.162;4.500;2023-06-22T10:55:30;41.14;34.28;42.89;;
72686;Laerm;61365;52.162;4.500;2023-06-22T10:57:56;41.11;32.84;43.08;;
72686;Laerm;61365;52.162;4.500;2023-06-22T11:00:22;41.19;34.47;43.41;;
72686;Laerm;61365;52.162;4.500;2023-06-22T11:02:48;41.13;32.98;43.17;;
72686;Laerm;61365;52.162;4.500;2023-06-22T11:05:14;41.24;34.23;43.14;;
72686;Laerm;61365;52.162;4.500;2023-06-22T11:07:43;41.28;34.85;43.12;;
72686;Laerm;61365;52.162;4.500;2023-06-22T11:10:11;41.31;33.76;43.33;;
72686;Laerm;61365;52.162;4.500;2023-06-22T11:12:37;41.29;34.77;43.21;;
72686;Laerm;61365;52.162;4.500;2023-06-22T11:15:04;41.37;33.83;44.40;;
72686;Laerm;61365;52.162;4.500;2023-06-22T11:17:30;41.37;34.35;43.26;;
72686;Laerm;61365;52.162;4.500;2023-06-22T11:19:56;41.21;33.78;43.38;;
72686;Laerm;61365;52.162;4.500;2023-06-22T11:22:22;41.19;34.11;43.17;;
72686;Laerm;61365;52.162;4.500;2023-06-22T11:24:49;41.24;34.46;43.22;;
72686;Laerm;61365;52.162;4.500;2023-06-22T11:27:15;41.25;34.73;43.08;;
72686;Laerm;61365;52.162;4.500;2023-06-22T11:29:41;41.22;32.70;43.03;;
72686;Laerm;61365;52.162;4.500;2023-06-22T11:32:07;41.26;34.30;43.33;;
72686;Laerm;61365;52.162;4.500;2023-06-22T11:34:34;41.34;35.10;43.36;;
72686;Laerm;61365;52.162;4.500;2023-06-22T11:37:00;41.15;33.79;43.17;;
72686;Laerm;61365;52.162;4.500;2023-06-22T11:39:27;41.30;34.28;43.60;;
72686;Laerm;61365;52.162;4.500;2023-06-22T11:41:53;41.44;35.19;43.91;;
72686;Laerm;61365;52.162;4.500;2023-06-22T11:44:19;41.22;34.62;43.25;;
72686;Laerm;61365;52.162;4.500;2023-06-22T11:46:45;41.22;33.04;43.04;;
72686;Laerm;61365;52.162;4.500;2023-06-22T11:49:12;41.17;34.50;47.06;;
72686;Laerm;61365;52.162;4.500;2023-06-22T11:51:38;41.22;34.38;43.26;;
72686;Laerm;61365;52.162;4.500;2023-06-22T11:54:04;41.18;33.31;43.22;;
72686;Laerm;61365;52.162;4.500;2023-06-22T11:56:30;41.29;34.32;43.14;;
72686;Laerm;61365;52.162;4.500;2023-06-22T11:58:57;41.28;33.32;43.24;;
72686;Laerm;61365;52.162;4.500;2023-06-22T12:01:23;41.34;34.53;43.98;;
72686;Laerm;61365;52.162;4.500;2023-06-22T12:03:49;41.14;33.70;43.81;;
72686;Laerm;61365;52.162;4.500;2023-06-22T12:06:15;41.24;32.88;43.25;;
72686;Laerm;61365;52.162;4.500;2023-06-22T12:08:41;41.20;33.93;43.00;;
72686;Laerm;61365;52.162;4.500;2023-06-22T12:11:07;41.23;33.12;43.45;;
72686;Laerm;61365;52.162;4.500;2023-06-22T12:13:33;41.20;34.20;43.08;;
72686;Laerm;61365;52.162;4.500;2023-06-22T12:15:59;41.19;34.32;44.26;;
72686;Laerm;61365;52.162;4.500;2023-06-22T12:18:25;41.21;34.48;43.02;;
72686;Laerm;61365;52.162;4.500;2023-06-22T12:20:51;41.18;34.12;45.37;;
72686;Laerm;61365;52.162;4.500;2023-06-22T12:23:17;41.24;34.37;44.22;;
72686;Laerm;61365;52.162;4.500;2023-06-22T12:25:45;41.18;34.28;43.29;;
72686;Laerm;61365;52.162;4.500;2023-06-22T12:28:11;41.18;34.05;43.37;;
72686;Laerm;61365;52.162;4.500;2023-06-22T12:30:37;41.21;34.08;43.69;;
72686;Laerm;61365;52.162;4.500;2023-06-22T12:33:03;41.26;34.45;43.98;;
72686;Laerm;61365;52.162;4.500;2023-06-22T12:35:30;41.28;34.10;43.13;;
72686;Laerm;61365;52.162;4.500;2023-06-22T12:37:56;41.36;35.22;43.25;;
72686;Laerm;61365;52.162;4.500;2023-06-22T12:40:22;41.31;34.39;43.46;;
72686;Laerm;61365;52.162;4.500;2023-06-22T12:42:48;41.35;33.98;43.22;;
72686;Laerm;61365;52.162;4.500;2023-06-22T12:45:15;41.43;34.75;44.30;;
72686;Laerm;61365;52.162;4.500;2023-06-22T12:47:41;41.33;34.50;43.57;;
72686;Laerm;61365;52.162;4.500;2023-06-22T12:50:07;41.30;34.52;43.24;;
72686;Laerm;61365;52.162;4.500;2023-06-22T12:52:36;41.34;34.56;43.42;;
72686;Laerm;61365;52.162;4.500;2023-06-22T12:55:05;41.29;34.48;43.56;;
72686;Laerm;61365;52.162;4.500;2023-06-22T12:57:31;41.23;34.69;43.95;;
72686;Laerm;61365;52.162;4.500;2023-06-22T12:59:57;41.26;34.91;43.54;;
72686;Laerm;61365;52.162;4.500;2023-06-22T13:02:26;41.26;34.06;44.73;;
72686;Laerm;61365;52.162;4.500;2023-06-22T13:04:53;41.26;35.21;44.29;;
72686;Laerm;61365;52.162;4.500;2023-06-22T13:07:19;41.40;35.83;43.56;;
72686;Laerm;61365;52.162;4.500;2023-06-22T13:09:45;41.34;34.49;43.03;;
72686;Laerm;61365;52.162;4.500;2023-06-22T13:12:12;41.37;35.41;43.32;;
72686;Laerm;61365;52.162;4.500;2023-06-22T13:14:40;41.37;34.34;44.05;;
72686;Laerm;61365;52.162;4.500;2023-06-22T13:17:06;41.33;34.46;43.44;;
72686;Laerm;61365;52.162;4.500;2023-06-22T13:19:32;41.31;34.30;44.10;;
72686;Laerm;61365;52.162;4.500;2023-06-22T13:21:59;41.30;34.79;43.57;;
72686;Laerm;61365;52.162;4.500;2023-06-22T13:24:26;41.40;33.89;43.89;;
72686;Laerm;61365;52.162;4.500;2023-06-22T13:26:52;41.41;33.34;44.73;;
72686;Laerm;61365;52.162;4.500;2023-06-22T13:29:18;41.38;34.50;44.04;;
72686;Laerm;61365;52.162;4.500;2023-06-22T13:31:44;41.36;34.87;44.35;;
72686;Laerm;61365;52.162;4.500;2023-06-22T13:34:10;41.40;34.03;44.41;;
72686;Laerm;61365;52.162;4.500;2023-06-22T13:36:36;41.36;34.59;43.11;;
72686;Laerm;61365;52.162;4.500;2023-06-22T13:39:03;41.39;34.36;43.10;;
72686;Laerm;61365;52.162;4.500;2023-06-22T13:41:29;41.20;34.93;43.41;;
72686;Laerm;61365;52.162;4.500;2023-06-22T13:43:55;41.38;34.63;45.06;;
72686;Laerm;61365;52.162;4.500;2023-06-22T13:46:21;41.42;34.10;43.42;;
72686;Laerm;61365;52.162;4.500;2023-06-22T13:48:47;41.34;34.91;43.30;;